Stations météo

réclame
Mon MeteoGroup
Otranto, Italie (16334): Température de l'air & dewpoint: 14.01.2018 00:00:00 - 20.01.2018 00:00:00 (CET)Otranto, Italie (16334): Vitesse du vent: 14.01.2018 00:00:00 - 20.01.2018 00:00:00 (CET)Otranto, Italie (16334): Direction du vent: 14.01.2018 00:00:00 - 20.01.2018 00:00:00 (CET)Otranto, Italie (16334): reduced air pressure: 14.01.2018 00:00:00 - 20.01.2018 00:00:00 (CET)Otranto, Italie (16334): Quantités de précipitations: 14.01.2018 00:00:00 - 20.01.2018 00:00:00 (CET)
Date & Time tt [°C] td [°C] ff [km/h] ff [knt] dd ppp [hPa] rr [mm]
20.01.2018 00:00:00 - - - - - - -
19.01.2018 23:00:00 13,4 13,3 21 11 S 1013,7 -
19.01.2018 22:00:00 13,2 13,1 18 10 S 1013,8 -
19.01.2018 21:00:00 13,3 13,2 18 10 SSW 1014,0 -
19.01.2018 20:00:00 13,2 12,2 18 10 S 1014,1 -
19.01.2018 19:00:00 12,6 11,6 13 7 S 1014,0 0,0
19.01.2018 18:00:00 12,7 11,7 9 5 S 1014,2 -
19.01.2018 17:00:00 13,4 12,4 18 10 S 1013,9 -
19.01.2018 16:00:00 13,7 13,0 18 10 S 1014,3 -
19.01.2018 15:00:00 13,9 12,9 18 10 S 1014,3 -
19.01.2018 14:00:00 14,6 13,9 15 8 SSE 1014,6 -
19.01.2018 13:00:00 14,6 13,1 18 10 S 1015,3 0,0
19.01.2018 12:00:00 14,9 12,9 21 11 S 1015,8 -
19.01.2018 11:00:00 14,9 12,9 18 10 SSE 1016,3 -
19.01.2018 10:00:00 14,1 11,9 15 8 SSE 1016,3 -
19.01.2018 09:00:00 12,7 11,1 13 7 S 1016,6 -
19.01.2018 08:00:00 10,1 8,8 8 4 S 1016,7 -
19.01.2018 07:00:00 10,4 9,0 4 2 SSW 1016,6 0,0
19.01.2018 06:00:00 10,6 8,8 4 2 SSW 1016,6 -
19.01.2018 05:00:00 10,4 8,6 4 2 SSW 1016,6 -
19.01.2018 04:00:00 10,3 8,5 8 4 S 1016,6 -
19.01.2018 03:00:00 9,9 8,1 8 4 SSE 1017,2 -
19.01.2018 02:00:00 9,5 7,1 8 4 S 1017,8 -
19.01.2018 01:00:00 9,3 6,5 5 3 S 1018,0 0,0
19.01.2018 00:00:00 8,9 7,0 8 4 SSW 1018,6 -
18.01.2018 23:00:00 9,0 7,4 8 4 S 1019,0 -
18.01.2018 22:00:00 8,5 6,1 8 4 SSW 1019,0 -
18.01.2018 21:00:00 7,7 5,3 0 0 N 1019,4 -
18.01.2018 20:00:00 7,6 5,4 2 1 WSW 1019,4 -
18.01.2018 19:00:00 7,6 5,4 4 2 WNW 1019,3 0,0
18.01.2018 18:00:00 9,1 7,0 8 4 NNW 1018,9 -
18.01.2018 17:00:00 10,3 7,9 5 3 NW 1019,2 -
18.01.2018 16:00:00 12,0 8,6 18 10 NNW 1019,3 -
18.01.2018 15:00:00 12,6 8,4 22 12 NNW 1018,8 -
18.01.2018 14:00:00 12,9 8,7 26 14 N 1018,8 -
18.01.2018 13:00:00 12,7 9,5 28 15 NW 1018,6 0,0
18.01.2018 12:00:00 12,4 9,4 26 14 NW 1018,6 -
18.01.2018 11:00:00 11,5 8,9 22 12 NW 1018,5 -
18.01.2018 10:00:00 10,7 7,4 24 13 NNW 1017,8 -
18.01.2018 09:00:00 9,0 6,8 21 11 NNW 1016,8 -
18.01.2018 08:00:00 7,4 5,2 21 11 NW 1015,9 -
18.01.2018 07:00:00 9,6 3,9 31 17 NNW 1014,2 -
18.01.2018 06:00:00 9,5 3,4 41 22 N 1012,3 -
18.01.2018 05:00:00 6,6 5,4 24 13 NNW 1011,5 -
18.01.2018 04:00:00 6,9 5,7 35 19 WNW 1009,5 -
18.01.2018 03:00:00 6,2 5,6 26 14 WNW 1009,4 -
18.01.2018 02:00:00 6,1 6,1 22 12 NW 1007,7 -
18.01.2018 01:00:00 6,4 5,8 34 18 NW 1008,3 -
18.01.2018 00:00:00 9,9 8,0 34 18 WNW 1006,5 -
17.01.2018 23:00:00 10,2 8,4 29 16 NW 1005,1 -
17.01.2018 22:00:00 10,9 8,4 39 21 NW 1003,9 -
17.01.2018 21:00:00 10,6 8,7 29 16 WNW 1003,7 -
17.01.2018 20:00:00 10,2 8,8 24 13 NW 1003,3 -
17.01.2018 19:00:00 12,5 10,9 42 23 WNW 1002,2 0,0
17.01.2018 18:00:00 15,1 13,4 22 12 WNW 999,6 -
17.01.2018 17:00:00 15,6 13,7 26 14 WSW 999,3 -
17.01.2018 16:00:00 16,5 14,4 31 17 WSW 999,7 -
17.01.2018 15:00:00 17,6 15,3 28 15 W 1000,5 -
17.01.2018 14:00:00 17,9 15,6 29 16 WSW 1000,9 -
17.01.2018 13:00:00 18,0 15,6 34 18 W 1002,4 0,0
17.01.2018 12:00:00 18,3 16,2 22 12 W 1003,4 -
17.01.2018 11:00:00 17,6 15,7 21 11 W 1004,8 -
17.01.2018 10:00:00 16,2 15,5 21 11 SW 1006,1 -
17.01.2018 09:00:00 15,7 14,2 22 12 S 1006,0 -
17.01.2018 08:00:00 13,8 12,5 15 8 SSW 1006,5 -
17.01.2018 07:00:00 14,2 12,9 13 7 SW 1007,4 0,0
17.01.2018 06:00:00 13,3 11,7 15 8 SSW 1007,9 -
17.01.2018 05:00:00 12,7 11,7 11 6 SSW 1008,4 -
17.01.2018 04:00:00 12,7 12,1 11 6 SSW 1009,6 -
17.01.2018 03:00:00 13,1 11,8 11 6 SW 1010,4 -
17.01.2018 02:00:00 13,5 12,0 13 7 WSW 1011,3 -
17.01.2018 01:00:00 11,8 11,0 11 6 SW 1011,9 0,0
17.01.2018 00:00:00 12,0 10,9 11 6 WSW 1012,9 -
16.01.2018 23:00:00 12,3 11,4 15 8 WSW 1012,9 -
16.01.2018 22:00:00 11,4 10,6 11 6 SW 1013,9 -
16.01.2018 21:00:00 11,2 10,4 9 5 WSW 1014,0 -
16.01.2018 20:00:00 11,6 10,8 11 6 SSW 1014,0 -
16.01.2018 19:00:00 11,9 10,6 9 5 SW 1014,4 0,0
16.01.2018 18:00:00 12,8 11,2 11 6 WSW 1014,5 -
16.01.2018 17:00:00 13,4 11,8 13 7 WSW 1014,3 -
16.01.2018 16:00:00 14,8 12,8 21 11 W 1014,6 -
16.01.2018 15:00:00 15,5 12,9 15 8 SW 1014,6 -
16.01.2018 14:00:00 15,7 12,8 18 10 WSW 1015,3 -
16.01.2018 13:00:00 15,7 13,8 11 6 WSW 1016,4 0,0
16.01.2018 12:00:00 14,7 12,8 13 7 WSW 1017,5 -
16.01.2018 11:00:00 15,0 13,5 16 9 SSW 1018,5 231,0
16.01.2018 10:00:00 14,2 13,2 11 6 SW 1019,0 -
16.01.2018 09:00:00 12,6 12,6 11 6 SW 1019,0 -
16.01.2018 08:00:00 10,4 10,4 11 6 SW 1019,0 -
16.01.2018 07:00:00 10,0 10,0 11 6 SW 1019,3 -
16.01.2018 06:00:00 9,5 9,5 5 3 SW 1019,3 -
16.01.2018 05:00:00 9,5 9,5 4 2 SW 1019,5 -
16.01.2018 04:00:00 9,8 9,8 5 3 SW 1020,1 -
16.01.2018 03:00:00 8,9 8,9 2 1 W 1020,7 -
16.01.2018 02:00:00 9,3 9,3 8 4 WNW 1020,9 -
16.01.2018 01:00:00 9,7 8,9 5 3 W 1021,2 0,0
16.01.2018 00:00:00 10,5 9,7 5 3 SW 1021,7 -
15.01.2018 23:00:00 10,6 9,8 5 3 SW 1021,8 -
15.01.2018 22:00:00 10,5 9,7 5 3 WSW 1021,9 -
15.01.2018 21:00:00 10,5 10,0 4 2 S 1021,4 -
15.01.2018 20:00:00 11,5 11,0 5 3 W 1021,4 -
15.01.2018 19:00:00 11,4 10,6 9 5 WSW 1021,4 0,0
15.01.2018 18:00:00 11,4 10,9 8 4 WSW 1021,5 -
15.01.2018 17:00:00 12,6 10,8 8 4 SW 1021,4 -
15.01.2018 16:00:00 14,2 13,2 13 7 SSW 1021,5 -
15.01.2018 15:00:00 14,9 13,9 15 8 S 1021,3 -
15.01.2018 14:00:00 15,0 14,0 15 8 S 1021,6 -
15.01.2018 13:00:00 15,1 13,9 15 8 S 1022,1 0,0
15.01.2018 12:00:00 14,5 13,8 16 9 S 1022,8 -
15.01.2018 11:00:00 14,5 14,3 11 6 S 1023,7 -
15.01.2018 10:00:00 13,7 13,6 9 5 S 1023,5 -
15.01.2018 09:00:00 12,2 12,2 5 3 SSW 1023,3 -
15.01.2018 08:00:00 11,9 11,9 8 4 SW 1022,7 -
15.01.2018 07:00:00 11,9 11,9 11 6 S 1022,4 0,0
15.01.2018 06:00:00 11,9 11,9 11 6 S 1022,4 -
15.01.2018 05:00:00 11,8 11,8 11 6 S 1022,3 -
15.01.2018 04:00:00 11,3 11,3 9 5 S 1022,8 -
15.01.2018 03:00:00 11,1 11,1 13 7 S 1023,1 -
15.01.2018 02:00:00 10,3 10,3 8 4 SSW 1023,2 -
15.01.2018 01:00:00 10,8 10,8 5 3 S 1022,9 0,0
15.01.2018 00:00:00 10,6 10,6 8 4 SSW 1023,2 -
14.01.2018 23:00:00 11,2 11,2 13 7 S 1023,1 -
14.01.2018 22:00:00 10,9 10,9 15 8 SSE 1022,9 -
14.01.2018 21:00:00 11,2 11,2 13 7 S 1022,4 -
14.01.2018 20:00:00 11,2 11,2 5 3 SSE 1022,4 -
14.01.2018 19:00:00 10,4 9,6 2 1 SSW 1022,4 -
14.01.2018 18:00:00 10,9 10,1 2 1 SW 1021,9 -
14.01.2018 17:00:00 11,8 10,9 4 2 S 1021,4 -
14.01.2018 16:00:00 12,4 11,1 4 2 SSW 1021,1 -
14.01.2018 15:00:00 12,9 11,9 5 3 SSW 1020,7 -
14.01.2018 14:00:00 13,1 11,6 8 4 S 1020,3 -
14.01.2018 13:00:00 13,7 12,1 5 3 S 1020,4 0,0
14.01.2018 12:00:00 13,4 12,8 4 2 SW 1020,6 -
14.01.2018 11:00:00 13,3 13,2 5 3 WNW 1020,7 -
14.01.2018 10:00:00 11,4 11,4 8 4 WNW 1020,4 -
14.01.2018 09:00:00 9,1 9,1 8 4 NW 1019,9 -
14.01.2018 08:00:00 8,0 8,0 9 5 WNW 1019,3 -
14.01.2018 07:00:00 7,8 7,8 11 6 WNW 1018,9 0,0
14.01.2018 06:00:00 8,3 8,3 11 6 NW 1018,6 -
14.01.2018 05:00:00 8,4 8,4 11 6 NW 1018,1 -
14.01.2018 04:00:00 8,7 8,7 11 6 WNW 1017,8 -
14.01.2018 03:00:00 8,8 8,0 11 6 WNW 1017,6 -
14.01.2018 02:00:00 9,3 8,5 13 7 NW 1017,1 -
14.01.2018 01:00:00 10,0 9,2 13 7 NW 1017,0 0,0
14.01.2018 00:00:00 10,1 9,3 15 8 NNW 1017,0 -

tt = Température de l'air
td = dewpoint
ff = Vitesse du vent
dd = Direction du vent
ppp = reduced air pressure
rr = Quantités de précipitations

stations d'obs. à proximité